Time;durP1;ratioP1;P1;durP2;ratioP2;P2;SDS_P1;SDS_P2;PMS_P1;PMS_P2;Temp;Humidity;BMP_temperature;BMP_pressure;BME280_temperature;BME280_humidity;BME280_pressure;Samples;Min_cycle;Max_cycle;Signal;HPM_P1;HPM_P2
2021/08/01 03:30:29;;;;;;;7.30;5.43;;;;;;;21.57;60.86;98112.44;8267287;23;20282;-80
2021/08/01 03:33:50;;;;;;;7.60;5.43;;;;;;;21.57;61.24;98135.22;6841161;29;20235;-81
2021/08/01 03:37:12;;;;;;;6.50;5.40;;;;;;;21.75;60.30;98137.22;6821650;29;20322;-80
2021/08/01 03:40:34;;;;;;;5.80;5.30;;;;;;;21.48;60.70;98125.97;6838647;28;20723;-81
2021/08/01 03:43:55;;;;;;;8.57;5.83;;;;;;;21.58;60.95;98133.25;6864106;28;20217;-81
2021/08/01 03:47:18;;;;;;;7.27;5.73;;;;;;;21.24;61.41;98111.41;6867871;28;20213;-80
2021/08/01 03:50:40;;;;;;;8.10;5.93;;;;;;;21.46;61.87;98143.81;6868742;28;20236;-81
2021/08/01 03:54:01;;;;;;;6.47;5.20;;;;;;;21.45;60.38;98137.53;6869666;28;20240;-81
2021/08/01 03:57:23;;;;;;;6.63;4.77;;;;;;;21.31;60.89;98142.06;6869168;28;20205;-81
2021/08/01 04:00:47;;;;;;;6.60;4.53;;;;;;;21.46;60.06;98136.41;6869845;28;20323;-80
2021/08/01 04:04:12;;;;;;;5.87;4.27;;;;;;;21.47;60.50;98143.53;6869582;28;20211;-80
2021/08/01 04:07:33;;;;;;;5.13;4.73;;;;;;;21.00;60.53;98147.31;6869863;28;20216;-81
2021/08/01 04:10:55;;;;;;;7.63;5.13;;;;;;;21.16;61.09;98151.56;6869236;28;20316;-81
2021/08/01 04:14:16;;;;;;;6.30;4.50;;;;;;;21.14;60.60;98152.63;6869887;28;20234;-81
2021/08/01 04:17:38;;;;;;;6.67;5.00;;;;;;;21.03;61.26;98155.78;6851963;28;20208;-80
2021/08/01 04:21:01;;;;;;;7.10;4.57;;;;;;;21.11;60.82;98151.59;6858900;28;20234;-81
2021/08/01 04:24:23;;;;;;;5.40;4.23;;;;;;;21.13;61.21;98156.50;6869635;28;20704;-81
2021/08/01 04:27:44;;;;;;;6.70;4.43;;;;;;;21.17;60.80;98149.34;6868284;28;20205;-80
2021/08/01 04:31:06;;;;;;;5.83;4.67;;;;;;;20.86;61.67;98138.88;6868471;28;20249;-80
2021/08/01 04:34:27;;;;;;;4.37;4.07;;;;;;;21.08;61.10;98157.63;6845180;28;20223;-80
2021/08/01 04:37:50;;;;;;;4.67;4.27;;;;;;;20.99;61.69;98160.19;6840903;29;20221;-80
2021/08/01 04:41:12;;;;;;;6.50;4.10;;;;;;;21.04;60.69;98159.34;6840250;29;20237;-81
2021/08/01 04:44:33;;;;;;;6.83;4.43;;;;;;;20.85;61.00;98164.66;6840630;29;20219;-80
2021/08/01 04:47:55;;;;;;;6.37;4.23;;;;;;;20.79;61.27;98154.84;6837391;28;20219;-80
2021/08/01 04:51:17;;;;;;;5.93;3.73;;;;;;;20.76;60.84;98162.81;6841557;29;20228;-80
2021/08/01 04:54:40;;;;;;;4.40;4.00;;;;;;;20.71;61.78;98157.38;6838810;28;20231;-80
2021/08/01 04:58:02;;;;;;;4.77;4.37;;;;;;;20.71;61.91;98154.63;6841840;29;20191;-80
2021/08/01 05:01:24;;;;;;;5.90;4.80;;;;;;;20.58;61.23;98141.59;6842468;28;20222;-81
2021/08/01 05:04:45;;;;;;;6.20;4.47;;;;;;;20.67;61.50;98150.81;6842521;29;20216;-80
2021/08/01 05:08:07;;;;;;;4.67;4.27;;;;;;;20.83;61.89;98164.94;6841933;29;20233;-80
2021/08/01 05:11:31;;;;;;;4.27;3.87;;;;;;;20.94;60.64;98157.47;6842715;28;20234;-80
2021/08/01 05:14:53;;;;;;;4.13;3.73;;;;;;;20.93;61.36;98155.84;6842127;29;20632;-80
2021/08/01 05:18:15;;;;;;;5.43;4.40;;;;;;;20.83;61.12;98156.72;6841885;29;20222;-80
2021/08/01 05:21:36;;;;;;;6.30;4.20;;;;;;;21.22;61.13;98153.94;6841884;28;20237;-80
2021/08/01 05:24:58;;;;;;;4.40;4.07;;;;;;;21.44;60.33;98157.00;6842406;29;20203;-80
2021/08/01 05:28:24;;;;;;;4.47;4.03;;;;;;;21.35;61.09;98148.59;6841176;29;20679;-80
2021/08/01 05:31:45;;;;;;;6.43;4.80;;;;;;;21.15;60.57;98150.72;6839996;28;20244;-81
2021/08/01 05:35:08;;;;;;;5.37;4.87;;;;;;;21.04;62.56;98145.63;6840613;29;20574;-81
2021/08/01 05:38:29;;;;;;;5.10;4.70;;;;;;;21.22;61.18;98153.94;6839476;29;20659;-80
2021/08/01 05:41:51;;;;;;;4.50;4.10;;;;;;;21.18;61.50;98161.94;6840522;28;20255;-80
2021/08/01 05:45:14;;;;;;;4.97;4.20;;;;;;;21.66;59.50;98149.91;6840127;29;20211;-80
2021/08/01 05:48:36;;;;;;;4.20;3.80;;;;;;;21.64;59.95;98145.81;6839727;29;20213;-81
2021/08/01 05:51:58;;;;;;;4.30;3.97;;;;;;;21.68;60.14;98141.41;6840085;28;20650;-81
2021/08/01 05:55:19;;;;;;;4.77;4.03;;;;;;;21.66;60.35;98138.94;6840624;29;20231;-81
2021/08/01 05:58:41;;;;;;;7.97;4.63;;;;;;;21.37;61.11;98123.63;6839887;28;20212;-80
2021/08/01 06:02:04;;;;;;;5.00;4.60;;;;;;;21.46;61.49;98124.63;6842741;28;20708;-80
2021/08/01 06:05:26;;;;;;;5.30;4.03;;;;;;;21.49;60.68;98108.38;6853772;28;20209;-80
2021/08/01 06:08:48;;;;;;;5.13;4.33;;;;;;;21.41;61.35;98141.13;6843872;28;20215;-82
2021/08/01 06:12:11;;;;;;;4.80;4.27;;;;;;;21.72;60.92;98131.50;6845643;29;20243;-80
2021/08/01 06:15:33;;;;;;;4.33;3.93;;;;;;;21.65;61.07;98142.78;6846516;29;20244;-80
2021/08/01 06:18:56;;;;;;;4.33;3.93;;;;;;;21.70;61.62;98134.53;6845722;29;20221;-81
2021/08/01 06:22:17;;;;;;;4.40;4.00;;;;;;;21.72;60.32;98137.78;6844250;29;20236;-80
2021/08/01 06:25:39;;;;;;;5.10;4.20;;;;;;;21.89;61.22;98129.91;6859030;28;20196;-80
2021/08/01 06:29:00;;;;;;;4.00;3.70;;;;;;;21.93;59.21;98132.88;6866094;29;20276;-80
2021/08/01 06:32:22;;;;;;;4.13;3.73;;;;;;;21.83;59.84;98127.53;6852867;29;20248;-80
2021/08/01 06:35:45;;;;;;;3.90;3.50;;;;;;;22.15;59.59;98146.84;6850393;29;20237;-80
2021/08/01 06:39:07;;;;;;;5.80;4.03;;;;;;;22.25;59.69;98158.50;6841939;29;20223;-81
2021/08/01 06:42:28;;;;;;;5.00;4.40;;;;;;;22.39;59.20;98161.34;6822039;29;20238;-80
2021/08/01 06:45:50;;;;;;;4.77;4.27;;;;;;;21.85;60.95;98171.94;6846106;29;20304;-80
2021/08/01 06:49:12;;;;;;;4.27;3.90;;;;;;;22.46;59.16;98173.66;6847772;29;20216;-80
2021/08/01 06:52:35;;;;;;;4.00;3.70;;;;;;;22.40;59.14;98180.28;6848945;28;20221;-80
2021/08/01 06:55:56;;;;;;;5.63;4.13;;;;;;;22.20;59.96;98186.03;6848497;29;20229;-80
2021/08/01 06:59:18;;;;;;;4.60;3.87;;;;;;;22.45;57.95;98176.69;6867611;28;20232;-79
2021/08/01 07:02:39;;;;;;;7.27;4.43;;;;;;;22.42;59.27;98197.28;6852035;28;20227;-79
2021/08/01 07:06:01;;;;;;;5.40;4.47;;;;;;;22.33;59.54;98193.59;6844454;29;20688;-79
2021/08/01 07:09:25;;;;;;;4.30;3.90;;;;;;;22.53;59.04;98190.56;6844100;29;20215;-80
2021/08/01 07:12:47;;;;;;;5.83;4.07;;;;;;;22.64;58.14;98188.50;6845028;28;20397;-79
2021/08/01 07:16:08;;;;;;;5.27;4.23;;;;;;;22.62;58.41;98197.06;6846112;29;20237;-79
2021/08/01 07:19:30;;;;;;;6.60;4.30;;;;;;;22.64;59.47;98200.31;6846042;28;20932;-80
2021/08/01 07:22:52;;;;;;;3.93;3.63;;;;;;;22.89;57.43;98182.63;6845518;29;20228;-81
2021/08/01 07:26:15;;;;;;;4.33;3.93;;;;;;;22.66;58.03;98200.03;6844993;29;20219;-81
2021/08/01 07:29:36;;;;;;;4.43;4.07;;;;;;;22.76;58.00;98208.09;6841048;29;20209;-81
2021/08/01 07:32:58;;;;;;;6.07;4.10;;;;;;;22.76;58.27;98203.44;6842952;28;20240;-81
2021/08/01 07:36:20;;;;;;;5.87;4.07;;;;;;;22.68;58.17;98206.03;6845092;29;20226;-81
2021/08/01 07:39:41;;;;;;;4.33;3.93;;;;;;;22.74;57.71;98208.41;6843533;29;20205;-81
2021/08/01 07:43:05;;;;;;;5.20;4.57;;;;;;;22.66;58.67;98220.06;6844283;29;20236;-81
2021/08/01 07:46:27;;;;;;;4.83;4.43;;;;;;;22.71;59.12;98206.25;6843328;29;20213;-80
2021/08/01 07:49:49;;;;;;;6.40;4.50;;;;;;;22.70;58.94;98212.03;6842972;29;20209;-81
2021/08/01 07:53:10;;;;;;;4.87;4.20;;;;;;;22.83;58.34;98209.34;6843052;29;20229;-80
2021/08/01 07:56:32;;;;;;;5.30;4.67;;;;;;;22.50;59.50;98206.84;6843364;29;20230;-81
2021/08/01 07:59:56;;;;;;;4.83;4.43;;;;;;;22.64;58.99;98213.22;6842753;29;20213;-80
2021/08/01 08:03:17;;;;;;;5.83;5.33;;;;;;;22.60;60.21;98215.75;6842569;29;20288;-80
2021/08/01 08:06:39;;;;;;;7.03;5.07;;;;;;;22.74;58.72;98219.41;6843669;29;20204;-80
2021/08/01 08:10:01;;;;;;;5.33;4.83;;;;;;;22.64;59.01;98215.97;6842680;29;20566;-80
2021/08/01 08:13:23;;;;;;;6.23;5.13;;;;;;;22.55;59.25;98213.06;6843558;29;20228;-80
2021/08/01 08:16:46;;;;;;;6.23;5.10;;;;;;;22.48;59.82;98209.06;6853412;28;20240;-80
2021/08/01 08:20:08;;;;;;;8.00;5.23;;;;;;;22.68;59.18;98209.59;6851842;28;20213;-80
2021/08/01 08:23:30;;;;;;;6.23;5.13;;;;;;;22.72;59.54;98202.38;6843025;29;20243;-81
2021/08/01 08:26:52;;;;;;;5.53;5.03;;;;;;;23.13;58.72;98219.09;6842440;29;20214;-80
2021/08/01 08:30:13;;;;;;;6.83;5.40;;;;;;;23.13;58.29;98216.34;6841824;28;20218;-80
2021/08/01 08:33:37;;;;;;;7.27;4.63;;;;;;;23.20;57.54;98217.59;6843016;29;20597;-80
2021/08/01 08:37:00;;;;;;;5.63;5.13;;;;;;;23.35;57.60;98228.34;6843125;29;20316;-80
2021/08/01 08:40:23;;;;;;;5.30;4.57;;;;;;;23.21;58.00;98212.91;6836449;29;20213;-80
2021/08/01 08:43:45;;;;;;;4.53;4.13;;;;;;;23.56;56.02;98223.31;6846572;28;20311;-80
2021/08/01 08:47:07;;;;;;;5.77;4.60;;;;;;;23.26;57.83;98223.84;6869018;28;20211;-80
2021/08/01 08:50:30;;;;;;;5.50;4.90;;;;;;;23.35;57.55;98220.09;6868148;28;20210;-81
2021/08/01 08:53:54;;;;;;;5.53;5.07;;;;;;;23.37;57.68;98219.81;6815559;29;20256;-80
2021/08/01 08:57:24;;;;;;;5.87;4.73;;;;;;;23.33;57.25;98224.28;6815551;29;20711;-79
2021/08/01 09:00:46;;;;;;;8.87;5.03;;;;;;;23.31;58.29;98221.81;6862827;28;20227;-81
2021/08/01 09:04:08;;;;;;;5.00;4.60;;;;;;;23.40;57.19;98236.53;6868607;28;20704;-79
2021/08/01 09:07:31;;;;;;;5.67;4.17;;;;;;;23.46;57.13;98229.00;6850835;28;20212;-80
2021/08/01 09:10:53;;;;;;;6.27;4.73;;;;;;;23.03;58.26;98242.06;6838728;28;20237;-80
2021/08/01 09:14:21;;;;;;;6.70;5.17;;;;;;;23.03;59.07;98227.50;6852856;28;20591;-80
2021/08/01 09:17:44;;;;;;;5.90;5.30;;;;;;;23.28;58.86;98246.34;6866688;28;20234;-81
2021/08/01 09:21:06;;;;;;;5.47;5.07;;;;;;;23.34;58.03;98237.72;6864155;28;20236;-80
2021/08/01 09:24:34;;;;;;;7.53;5.47;;;;;;;23.55;57.79;98263.78;6864773;28;20591;-81
2021/08/01 09:28:06;;;;;;;6.70;5.77;;;;;;;23.69;57.86;98261.06;6862214;28;20204;-84
2021/08/01 09:31:28;;;;;;;23.63;11.50;;;;;;;23.84;58.39;98264.34;6902773;23;20324;-82
2021/08/01 09:34:50;;;;;;;17.63;12.63;;;;;;;23.80;58.21;98246.00;6862694;28;20575;-83
2021/08/01 09:38:13;;;;;;;31.70;17.03;;;;;;;23.61;56.38;98257.06;6858041;28;20231;-83
2021/08/01 09:41:37;;;;;;;5.40;4.90;;;;;;;23.91;55.62;98261.25;6856514;28;20694;-81
2021/08/01 09:45:12;;;;;;;4.87;4.40;;;;;;;24.09;55.98;98261.19;6872954;28;20208;-81
2021/08/01 09:48:34;;;;;;;4.30;3.90;;;;;;;24.09;54.60;98263.09;6872025;28;20203;-81
2021/08/01 09:51:57;;;;;;;7.27;4.30;;;;;;;23.84;54.20;98258.03;6871733;28;20239;-81
2021/08/01 09:55:20;;;;;;;4.43;4.03;;;;;;;23.32;56.69;98252.91;6872323;28;20319;-81
2021/08/01 09:58:43;;;;;;;5.83;4.10;;;;;;;24.07;54.48;98226.78;6872300;28;20230;-83
2021/08/01 10:02:05;;;;;;;4.23;3.80;;;;;;;24.38;53.86;98242.41;6872345;28;20235;-81
2021/08/01 10:05:27;;;;;;;4.20;3.80;;;;;;;23.53;55.61;98241.25;6873082;28;20556;-82
2021/08/01 10:08:50;;;;;;;4.97;3.43;;;;;;;24.36;53.81;98241.06;6872412;28;20204;-82
2021/08/01 10:12:13;;;;;;;3.90;3.30;;;;;;;24.28;51.53;98231.56;6872692;28;20222;-82
2021/08/01 10:15:36;;;;;;;3.63;3.33;;;;;;;23.71;55.04;98234.88;6873614;28;20241;-82
2021/08/01 10:18:57;;;;;;;3.43;3.10;;;;;;;23.94;55.78;98241.34;6872200;28;20217;-84
2021/08/01 10:22:19;;;;;;;3.83;3.40;;;;;;;24.11;52.91;98201.06;6870727;28;20234;-82
2021/08/01 10:25:41;;;;;;;3.73;3.00;;;;;;;24.30;52.22;98239.53;6868937;28;20226;-82
2021/08/01 10:29:07;;;;;;;2.73;2.47;;;;;;;23.95;50.84;98227.28;6868902;28;20333;-82
2021/08/01 10:32:31;;;;;;;6.17;2.60;;;;;;;23.85;52.90;98240.41;6848540;28;20250;-81
2021/08/01 10:35:58;;;;;;;2.93;2.70;;;;;;;24.03;53.72;98242.28;6841174;29;20237;-82
2021/08/01 10:39:22;;;;;;;2.87;2.67;;;;;;;24.08;52.21;98234.72;6849152;28;20196;-82
2021/08/01 10:42:46;;;;;;;3.00;2.80;;;;;;;23.91;54.76;98240.03;6843652;28;20258;-82
2021/08/01 10:46:09;;;;;;;3.47;2.53;;;;;;;24.00;55.13;98238.19;6867786;28;20209;-82
2021/08/01 10:49:32;;;;;;;2.90;2.60;;;;;;;23.89;54.19;98238.72;6866780;28;20697;-82
2021/08/01 10:53:26;;;;;;;3.27;2.67;;;;;;;23.92;52.55;98221.56;6867456;28;20240;-82
2021/08/01 10:56:48;;;;;;;2.80;2.60;;;;;;;23.90;53.44;98229.31;6868532;28;20629;-82
2021/08/01 11:00:10;;;;;;;2.70;2.50;;;;;;;24.42;51.99;98218.59;6867249;28;20205;-82
2021/08/01 11:03:33;;;;;;;5.33;2.60;;;;;;;24.24;52.30;98229.75;6867466;28;20222;-82
2021/08/01 11:06:56;;;;;;;4.27;2.57;;;;;;;24.33;52.95;98228.72;6868106;28;20212;-79
2021/08/01 11:10:24;;;;;;;3.20;2.90;;;;;;;23.93;54.04;98236.97;6868534;28;20214;-79
2021/08/01 11:13:46;;;;;;;4.17;2.60;;;;;;;24.48;53.21;98227.59;6865645;28;20209;-79
2021/08/01 11:17:08;;;;;;;3.30;2.50;;;;;;;24.39;49.96;98224.72;6865869;28;20862;-79
2021/08/01 11:20:52;;;;;;;2.87;2.60;;;;;;;24.06;51.40;98216.91;6864547;28;20224;-80
2021/08/01 11:24:15;;;;;;;3.23;2.90;;;;;;;24.57;51.34;98200.94;6865313;28;20194;-80
2021/08/01 11:27:36;;;;;;;2.97;2.60;;;;;;;25.25;49.29;98220.88;6865930;28;20212;-79
2021/08/01 11:31:10;;;;;;;2.87;2.50;;;;;;;25.52;48.09;98213.25;6861260;28;20236;-80
2021/08/01 11:34:32;;;;;;;2.90;2.70;;;;;;;24.85;49.96;98208.03;6864613;28;20297;-83
2021/08/01 11:38:10;;;;;;;2.50;2.30;;;;;;;25.28;47.26;98215.53;6865717;28;20232;-80
2021/08/01 11:41:37;;;;;;;4.40;2.77;;;;;;;25.28;48.25;98201.75;6865679;28;20224;-81
2021/08/01 11:45:00;;;;;;;2.77;2.57;;;;;;;25.00;48.35;98214.00;6856089;28;20323;-83
2021/08/01 11:48:22;;;;;;;3.27;2.63;;;;;;;25.82;46.93;98206.94;6848655;28;20205;-85
2021/08/01 11:51:45;;;;;;;2.90;2.53;;;;;;;25.98;45.92;98210.13;6865361;28;20236;-81
2021/08/01 11:55:07;;;;;;;2.87;2.20;;;;;;;26.08;43.99;98183.00;6865359;28;20206;-83
2021/08/01 11:58:32;;;;;;;2.77;2.50;;;;;;;26.88;43.06;98199.97;6864454;28;20206;-81
2021/08/01 12:01:54;;;;;;;3.10;2.77;;;;;;;27.11;44.16;98195.91;6864756;28;20220;-81
2021/08/01 12:05:16;;;;;;;3.73;2.80;;;;;;;27.39;42.00;98186.13;6864383;28;20213;-81
2021/08/01 12:08:38;;;;;;;3.30;3.00;;;;;;;27.33;41.17;98192.97;6862682;28;20274;-82
2021/08/01 12:12:01;;;;;;;3.23;2.77;;;;;;;26.70;43.42;98173.44;6838805;28;20226;-82
2021/08/01 12:15:26;;;;;;;5.07;3.03;;;;;;;26.03;44.47;98151.97;6857282;28;20221;-82
2021/08/01 12:18:47;;;;;;;3.20;2.90;;;;;;;26.33;45.84;98192.53;6862950;28;20202;-82
2021/08/01 12:22:10;;;;;;;4.30;2.97;;;;;;;26.45;43.37;98192.72;6864281;28;20325;-82
2021/08/01 12:25:32;;;;;;;3.37;3.07;;;;;;;26.59;43.04;98188.72;6863747;28;20222;-82
2021/08/01 12:28:54;;;;;;;5.07;2.80;;;;;;;26.86;44.58;98187.59;6863230;28;20209;-82
2021/08/01 12:32:22;;;;;;;3.70;3.07;;;;;;;26.83;44.54;98178.00;6838078;28;20739;-82
2021/08/01 12:35:44;;;;;;;3.83;2.90;;;;;;;26.91;44.38;98181.91;6854336;28;20216;-82
2021/08/01 12:39:07;;;;;;;4.23;3.23;;;;;;;27.12;43.02;98180.09;6864973;28;20690;-82
2021/08/01 12:42:28;;;;;;;3.93;2.90;;;;;;;26.80;42.97;98167.59;6865012;28;20318;-82
2021/08/01 12:45:51;;;;;;;3.83;2.60;;;;;;;26.72;41.92;98171.13;6866297;28;20206;-82
2021/08/01 12:49:14;;;;;;;4.43;2.60;;;;;;;26.48;43.13;98172.72;6864395;28;20279;-82
2021/08/01 12:52:36;;;;;;;3.33;2.70;;;;;;;26.60;42.44;98168.22;6860655;28;20703;-82
2021/08/01 12:56:00;;;;;;;2.63;2.43;;;;;;;26.11;43.68;98187.09;6855070;28;20325;-82
2021/08/01 12:59:22;;;;;;;2.80;2.60;;;;;;;26.24;44.39;98170.38;6859502;28;20201;-81
2021/08/01 13:02:45;;;;;;;8.23;3.20;;;;;;;26.31;43.99;98145.84;6868849;28;20231;-82
2021/08/01 13:06:08;;;;;;;4.93;3.00;;;;;;;26.28;44.66;98184.38;6840653;28;20204;-82
2021/08/01 13:09:30;;;;;;;5.30;3.40;;;;;;;26.22;45.08;98189.25;6864368;28;20213;-82
2021/08/01 13:13:12;;;;;;;3.23;3.00;;;;;;;25.83;46.70;98197.50;6859137;28;20240;-82
2021/08/01 13:16:50;;;;;;;3.20;2.90;;;;;;;26.00;46.81;98188.50;6845832;28;20674;-82
2021/08/01 13:20:12;;;;;;;3.93;3.10;;;;;;;26.05;46.81;98177.31;6856584;28;20215;-82
2021/08/01 13:23:37;;;;;;;3.77;3.27;;;;;;;25.56;46.85;98191.34;6865207;28;20603;-82
2021/08/01 13:27:01;;;;;;;3.50;3.20;;;;;;;25.06;48.16;98138.25;6864880;28;20216;-82
2021/08/01 13:30:24;;;;;;;5.50;3.50;;;;;;;26.10;45.87;98193.75;6860931;28;20204;-82
2021/08/01 13:33:56;;;;;;;3.83;3.17;;;;;;;26.67;46.34;98189.88;6862871;28;20197;-82
2021/08/01 13:37:19;;;;;;;4.77;3.57;;;;;;;26.93;44.52;98182.38;6862050;28;20694;-82
2021/08/01 13:40:42;;;;;;;5.17;3.40;;;;;;;26.83;44.72;98191.81;6857997;28;20240;-82
2021/08/01 13:44:15;;;;;;;3.73;3.17;;;;;;;26.82;44.69;98162.53;6862926;28;20302;-81
2021/08/01 13:47:37;;;;;;;3.43;2.93;;;;;;;27.70;42.56;98183.09;6861884;28;20230;-80
2021/08/01 13:50:58;;;;;;;3.70;3.03;;;;;;;26.85;44.07;98172.13;6861831;28;20735;-80
2021/08/01 13:54:20;;;;;;;3.50;3.13;;;;;;;26.25;44.48;98160.16;6864355;28;20244;-80
2021/08/01 13:57:43;;;;;;;4.83;3.07;;;;;;;26.39;46.68;98161.66;6863274;28;20707;-80
2021/08/01 14:01:05;;;;;;;4.77;2.90;;;;;;;26.76;44.50;98179.59;6860432;28;20571;-81
2021/08/01 14:04:26;;;;;;;2.90;2.70;;;;;;;26.54;43.10;98139.09;6853521;28;20211;-81
2021/08/01 14:07:48;;;;;;;6.13;3.43;;;;;;;26.62;44.29;98165.94;6862340;28;20209;-81
2021/08/01 14:11:09;;;;;;;4.10;3.50;;;;;;;26.57;45.32;98154.22;6882906;28;20227;-81
2021/08/01 14:14:33;;;;;;;4.37;3.00;;;;;;;26.87;43.90;98164.31;6889618;28;20204;-81
2021/08/01 14:17:54;;;;;;;3.30;3.00;;;;;;;26.68;45.43;98170.19;6889331;28;20225;-81
2021/08/01 14:21:16;;;;;;;3.73;3.30;;;;;;;25.96;45.98;98171.75;6882820;28;20245;-80
2021/08/01 14:24:38;;;;;;;3.70;3.10;;;;;;;26.62;45.55;98170.66;6862612;28;20219;-80
2021/08/01 14:28:00;;;;;;;4.77;3.53;;;;;;;25.92;47.70;98169.97;6863509;28;20198;-80
2021/08/01 14:31:23;;;;;;;4.97;3.27;;;;;;;25.40;49.06;98173.56;6868667;28;20264;-80
2021/08/01 14:34:47;;;;;;;3.90;3.50;;;;;;;25.20;50.42;98174.06;6868684;28;20216;-80
2021/08/01 14:38:09;;;;;;;4.27;3.33;;;;;;;24.90;51.22;98155.50;6869036;28;20237;-80
2021/08/01 14:41:31;;;;;;;5.03;3.00;;;;;;;24.68;51.66;98169.25;6870068;28;20605;-80
2021/08/01 14:44:52;;;;;;;3.20;2.90;;;;;;;24.57;50.91;98154.06;6870640;28;20201;-80
2021/08/01 14:48:16;;;;;;;2.90;2.63;;;;;;;24.43;51.21;98167.06;6853133;28;20221;-80
2021/08/01 14:55:18;;;;;;;2.93;2.40;;;;;;;24.18;48.36;98179.44;6871082;28;20191;-81
2021/08/01 14:58:44;;;;;;;2.70;2.50;;;;;;;24.19;48.83;98180.25;6869466;28;20238;-80
2021/08/01 15:02:11;;;;;;;2.87;2.57;;;;;;;23.92;49.64;98178.34;6871441;28;20279;-81
2021/08/01 15:05:47;;;;;;;2.70;2.50;;;;;;;24.20;48.85;98201.97;6872421;28;20202;-82
2021/08/01 15:09:14;;;;;;;4.43;2.63;;;;;;;24.39;47.63;98171.53;6844043;29;20288;-82
2021/08/01 15:12:38;;;;;;;2.77;2.50;;;;;;;24.14;48.22;98197.69;6838562;28;20237;-83
2021/08/01 15:16:01;;;;;;;4.47;2.70;;;;;;;23.72;49.89;98210.91;6839556;29;20221;-82
2021/08/01 15:19:29;;;;;;;2.60;2.40;;;;;;;23.69;50.88;98159.22;6865933;28;20206;-82
2021/08/01 15:22:55;;;;;;;3.33;3.03;;;;;;;23.43;51.50;98205.63;6868424;28;20702;-81
2021/08/01 15:26:17;;;;;;;3.97;3.13;;;;;;;23.75;51.54;98213.88;6866858;28;20196;-81
2021/08/01 15:29:39;;;;;;;3.27;2.97;;;;;;;23.99;50.85;98222.81;6865504;28;20213;-79
2021/08/01 15:33:00;;;;;;;3.57;3.23;;;;;;;23.84;51.48;98250.59;6859974;23;20237;-82
2021/08/01 15:36:22;;;;;;;3.93;2.83;;;;;;;23.89;50.50;98245.00;6864275;28;20216;-82
2021/08/01 15:39:46;;;;;;;3.33;3.03;;;;;;;23.95;50.79;98248.50;6863319;28;20208;-82
2021/08/01 15:43:07;;;;;;;3.93;3.10;;;;;;;23.88;51.25;98253.56;6864451;28;20240;-82
2021/08/01 15:46:29;;;;;;;3.00;2.70;;;;;;;23.28;49.64;98266.44;6864431;28;20697;-82
2021/08/01 15:49:51;;;;;;;2.50;2.30;;;;;;;23.47;48.70;98231.44;6864749;28;20216;-82
2021/08/01 15:53:17;;;;;;;3.17;2.87;;;;;;;23.50;48.95;98263.88;6866092;28;20224;-81
2021/08/01 15:56:45;;;;;;;2.87;2.57;;;;;;;23.68;47.77;98246.50;6867130;28;20232;-83
2021/08/01 16:00:08;;;;;;;3.07;2.60;;;;;;;23.99;47.70;98255.84;6870233;28;20200;-85
2021/08/01 16:03:42;;;;;;;5.20;2.83;;;;;;;24.10;47.37;98251.78;6868641;28;20238;-81
2021/08/01 16:07:05;;;;;;;3.93;2.57;;;;;;;24.27;47.32;98257.50;6868583;28;20211;-82
2021/08/01 16:10:28;;;;;;;2.73;2.20;;;;;;;23.97;47.98;98246.25;6866948;28;20676;-82
2021/08/01 16:13:52;;;;;;;5.20;2.40;;;;;;;23.59;47.59;98231.78;6869277;28;20211;-81
2021/08/01 16:17:21;;;;;;;2.50;2.30;;;;;;;23.37;47.40;98253.63;6845629;28;20268;-82
2021/08/01 16:20:46;;;;;;;3.20;2.20;;;;;;;23.53;48.22;98251.44;6844589;28;20249;-81
2021/08/01 16:24:09;;;;;;;1.80;1.70;;;;;;;23.35;45.95;98257.78;6848733;28;20734;-81
2021/08/01 16:27:30;;;;;;;2.43;2.13;;;;;;;23.63;45.73;98251.25;6869119;28;20233;-81
2021/08/01 16:30:54;;;;;;;2.60;1.90;;;;;;;23.29;46.28;98235.06;6850317;28;20265;-81
2021/08/01 16:34:17;;;;;;;1.97;1.83;;;;;;;23.25;47.13;98233.22;6841212;28;20701;-81
2021/08/01 16:37:39;;;;;;;2.17;1.87;;;;;;;23.16;46.41;98245.97;6849410;28;20226;-81
2021/08/01 16:41:18;;;;;;;2.83;1.70;;;;;;;22.74;47.08;98240.56;6868388;28;20365;-81
2021/08/01 16:44:45;;;;;;;2.20;1.60;;;;;;;22.30;48.53;98253.78;6868230;28;20251;-81
2021/08/01 16:48:12;;;;;;;2.10;1.87;;;;;;;22.13;49.19;98253.44;6867097;28;20204;-81
2021/08/01 16:51:59;;;;;;;1.80;1.70;;;;;;;22.50;48.42;98259.03;6867703;28;20234;-81
2021/08/01 16:55:27;;;;;;;1.53;1.43;;;;;;;22.25;49.07;98251.09;6865307;28;20211;-81
2021/08/01 16:58:53;;;;;;;2.20;1.80;;;;;;;22.64;48.63;98257.19;6867258;28;20226;-81
2021/08/01 17:02:27;;;;;;;2.53;1.80;;;;;;;22.88;47.74;98256.03;6852770;28;20225;-82
2021/08/01 17:05:52;;;;;;;1.73;1.63;;;;;;;22.94;47.63;98257.59;6868557;28;20203;-81
2021/08/01 17:09:20;;;;;;;1.67;1.57;;;;;;;22.55;48.41;98265.28;6866859;28;20199;-81
2021/08/01 17:12:42;;;;;;;2.07;1.80;;;;;;;21.77;49.33;98274.94;6867798;28;20228;-81
2021/08/01 17:16:06;;;;;;;3.97;1.87;;;;;;;21.98;49.48;98283.78;6868030;28;20219;-81
2021/08/01 17:19:29;;;;;;;2.20;1.70;;;;;;;22.31;48.62;98278.19;6866413;28;20319;-81
2021/08/01 17:22:55;;;;;;;1.70;1.60;;;;;;;22.58;47.67;98283.94;6867437;28;20233;-81
2021/08/01 17:26:16;;;;;;;2.80;1.77;;;;;;;22.26;48.47;98294.75;6866957;28;20286;-81
2021/08/01 17:29:38;;;;;;;3.47;1.67;;;;;;;22.20;49.12;98292.34;6867010;28;20339;-81
2021/08/01 17:33:01;;;;;;;2.00;1.80;;;;;;;22.47;48.23;98290.66;6868317;28;20233;-81
2021/08/01 17:36:25;;;;;;;1.80;1.70;;;;;;;22.72;47.18;98297.78;6867191;28;20232;-81
2021/08/01 17:39:49;;;;;;;1.77;1.67;;;;;;;22.22;47.55;98296.44;6841296;29;20245;-81
2021/08/01 17:43:11;;;;;;;1.40;1.30;;;;;;;21.75;49.28;98307.38;6867627;28;20241;-81
2021/08/01 17:46:35;;;;;;;1.80;1.70;;;;;;;22.22;48.04;98298.34;6865869;28;20216;-81
2021/08/01 17:49:57;;;;;;;1.90;1.80;;;;;;;22.27;47.82;98307.38;6862313;28;20203;-81
2021/08/01 17:53:20;;;;;;;1.63;1.50;;;;;;;22.39;47.93;98298.72;6868565;28;20242;-81
2021/08/01 17:56:43;;;;;;;4.03;1.77;;;;;;;22.70;47.59;98299.97;6868639;28;20221;-81
2021/08/01 18:00:06;;;;;;;4.37;1.60;;;;;;;22.73;47.36;98297.47;6851915;28;20208;-81
2021/08/01 18:03:28;;;;;;;1.40;1.30;;;;;;;22.53;46.87;98296.94;6842272;28;20228;-81
2021/08/01 18:06:55;;;;;;;1.60;1.50;;;;;;;23.16;45.87;98293.59;6846273;28;20224;-81
2021/08/01 18:10:17;;;;;;;1.97;1.80;;;;;;;22.84;46.74;98287.97;6845178;28;20207;-81
2021/08/01 18:13:49;;;;;;;3.67;1.70;;;;;;;22.69;46.60;98279.13;6845866;29;20236;-81
2021/08/01 18:17:11;;;;;;;3.57;1.90;;;;;;;22.90;46.48;98286.78;6845476;28;20218;-79
2021/08/01 18:20:33;;;;;;;2.17;1.70;;;;;;;23.06;46.06;98303.91;6843401;29;20206;-82
2021/08/01 18:23:56;;;;;;;4.90;2.40;;;;;;;22.76;47.32;98302.38;6844913;29;20224;-82
2021/08/01 18:27:17;;;;;;;2.43;2.00;;;;;;;22.71;47.47;98305.19;6856048;28;20219;-82
2021/08/01 18:30:41;;;;;;;2.20;2.00;;;;;;;22.58;47.89;98325.16;6870151;28;20241;-82
2021/08/01 18:34:03;;;;;;;2.37;1.77;;;;;;;22.49;48.40;98326.09;6869467;28;20218;-82
2021/08/01 18:37:27;;;;;;;2.10;1.80;;;;;;;22.89;47.37;98320.09;6867335;28;20225;-82
2021/08/01 18:40:50;;;;;;;2.93;1.73;;;;;;;22.55;47.97;98328.47;6868105;28;20717;-82
2021/08/01 18:44:12;;;;;;;2.50;1.80;;;;;;;22.77;47.54;98330.69;6871146;28;20209;-81
2021/08/01 18:47:36;;;;;;;2.03;1.87;;;;;;;21.82;50.35;98335.28;6857714;28;20259;-81
2021/08/01 18:50:57;;;;;;;2.30;1.80;;;;;;;22.62;48.95;98320.72;6850894;28;20244;-81
2021/08/01 18:54:19;;;;;;;2.43;2.03;;;;;;;22.54;49.17;98351.56;6864836;28;20206;-80
2021/08/01 18:57:41;;;;;;;2.90;1.90;;;;;;;22.56;49.34;98354.03;6871050;28;20236;-80
2021/08/01 19:01:05;;;;;;;2.60;2.10;;;;;;;22.05;51.17;98359.22;6870577;28;20723;-81
2021/08/01 19:04:28;;;;;;;2.93;2.20;;;;;;;21.53;52.16;98364.59;6871407;28;20583;-80
2021/08/01 19:07:50;;;;;;;4.20;1.90;;;;;;;21.79;52.27;98352.34;6870379;28;20210;-81
2021/08/01 19:11:14;;;;;;;2.00;1.90;;;;;;;22.08;52.10;98363.31;6862518;28;20600;-80
2021/08/01 19:14:36;;;;;;;3.70;2.20;;;;;;;21.10;54.57;98350.09;6849151;28;20206;-80
2021/08/01 19:18:04;;;;;;;2.57;2.00;;;;;;;21.83;53.12;98378.09;6859139;28;20276;-80
2021/08/01 19:21:30;;;;;;;3.07;2.00;;;;;;;22.00;52.81;98374.91;6860905;28;20705;-80
2021/08/01 19:24:57;;;;;;;3.57;2.40;;;;;;;22.22;52.33;98378.00;6872583;28;20207;-80
2021/08/01 19:28:23;;;;;;;3.70;2.50;;;;;;;22.06;52.86;98374.59;6871483;28;20200;-80
2021/08/01 19:31:46;;;;;;;2.70;2.50;;;;;;;22.13;52.31;98386.03;6871951;28;20236;-80